sensor_id;sensor_type;location;lat;lon;timestamp;temperature;humidity
53643;DHT22;39546;45.534;12.048;2023-04-15T00:01:21;13.40;80.50
53643;DHT22;39546;45.534;12.048;2023-04-15T00:07:24;13.40;80.20
53643;DHT22;39546;45.534;12.048;2023-04-15T00:13:26;13.30;80.40
53643;DHT22;39546;45.534;12.048;2023-04-15T00:19:29;13.20;80.90
53643;DHT22;39546;45.534;12.048;2023-04-15T00:25:32;13.20;80.80
53643;DHT22;39546;45.534;12.048;2023-04-15T00:31:34;13.00;80.90
53643;DHT22;39546;45.534;12.048;2023-04-15T00:37:36;12.90;80.90
53643;DHT22;39546;45.534;12.048;2023-04-15T00:43:38;12.80;81.30
53643;DHT22;39546;45.534;12.048;2023-04-15T00:49:40;12.70;81.30
53643;DHT22;39546;45.534;12.048;2023-04-15T00:55:43;12.70;81.30
53643;DHT22;39546;45.534;12.048;2023-04-15T01:01:45;12.60;81.90
53643;DHT22;39546;45.534;12.048;2023-04-15T01:07:48;12.50;81.70
53643;DHT22;39546;45.534;12.048;2023-04-15T01:13:51;12.60;81.70
53643;DHT22;39546;45.534;12.048;2023-04-15T01:19:55;12.50;82.20
53643;DHT22;39546;45.534;12.048;2023-04-15T01:25:59;12.70;82.20
53643;DHT22;39546;45.534;12.048;2023-04-15T01:32:01;12.60;82.20
53643;DHT22;39546;45.534;12.048;2023-04-15T01:38:07;12.50;82.20
53643;DHT22;39546;45.534;12.048;2023-04-15T01:44:09;12.40;81.90
53643;DHT22;39546;45.534;12.048;2023-04-15T01:50:14;12.20;82.10
53643;DHT22;39546;45.534;12.048;2023-04-15T01:56:16;12.10;82.70
53643;DHT22;39546;45.534;12.048;2023-04-15T02:02:19;12.20;82.90
53643;DHT22;39546;45.534;12.048;2023-04-15T02:08:22;12.20;82.80
53643;DHT22;39546;45.534;12.048;2023-04-15T02:14:24;12.20;82.70
53643;DHT22;39546;45.534;12.048;2023-04-15T02:20:29;12.20;82.80
53643;DHT22;39546;45.534;12.048;2023-04-15T02:26:32;12.20;82.60
53643;DHT22;39546;45.534;12.048;2023-04-15T02:32:34;12.30;82.50
53643;DHT22;39546;45.534;12.048;2023-04-15T02:38:38;12.20;82.60
53643;DHT22;39546;45.534;12.048;2023-04-15T02:44:44;12.20;82.60
53643;DHT22;39546;45.534;12.048;2023-04-15T02:50:46;12.20;82.50
53643;DHT22;39546;45.534;12.048;2023-04-15T02:56:49;12.20;82.60
53643;DHT22;39546;45.534;12.048;2023-04-15T03:02:56;12.30;82.60
53643;DHT22;39546;45.534;12.048;2023-04-15T03:08:58;12.30;82.50
53643;DHT22;39546;45.534;12.048;2023-04-15T03:15:03;12.30;82.40
53643;DHT22;39546;45.534;12.048;2023-04-15T03:21:06;12.20;82.70
53643;DHT22;39546;45.534;12.048;2023-04-15T03:27:09;12.30;82.40
53643;DHT22;39546;45.534;12.048;2023-04-15T03:33:11;12.30;82.30
53643;DHT22;39546;45.534;12.048;2023-04-15T03:39:14;12.20;82.00
53643;DHT22;39546;45.534;12.048;2023-04-15T03:45:16;12.20;82.10
53643;DHT22;39546;45.534;12.048;2023-04-15T03:51:18;12.20;82.40
53643;DHT22;39546;45.534;12.048;2023-04-15T03:57:20;12.00;82.70
53643;DHT22;39546;45.534;12.048;2023-04-15T04:03:22;11.90;83.00
53643;DHT22;39546;45.534;12.048;2023-04-15T04:09:25;11.80;83.20
53643;DHT22;39546;45.534;12.048;2023-04-15T04:15:27;11.80;83.40
53643;DHT22;39546;45.534;12.048;2023-04-15T04:21:29;11.70;83.50
53643;DHT22;39546;45.534;12.048;2023-04-15T04:27:31;11.80;83.60
53643;DHT22;39546;45.534;12.048;2023-04-15T04:33:33;11.80;83.40
53643;DHT22;39546;45.534;12.048;2023-04-15T04:39:36;11.60;83.80
53643;DHT22;39546;45.534;12.048;2023-04-15T04:45:38;11.70;84.10
53643;DHT22;39546;45.534;12.048;2023-04-15T04:51:40;11.70;84.10
53643;DHT22;39546;45.534;12.048;2023-04-15T04:57:42;11.80;84.10
53643;DHT22;39546;45.534;12.048;2023-04-15T05:03:45;11.90;84.30
53643;DHT22;39546;45.534;12.048;2023-04-15T05:09:47;12.00;84.20
53643;DHT22;39546;45.534;12.048;2023-04-15T05:15:49;12.10;84.30
53643;DHT22;39546;45.534;12.048;2023-04-15T05:21:51;12.20;84.40
53643;DHT22;39546;45.534;12.048;2023-04-15T05:27:54;12.30;84.60
53643;DHT22;39546;45.534;12.048;2023-04-15T05:33:56;12.20;84.70
53643;DHT22;39546;45.534;12.048;2023-04-15T05:39:58;12.30;85.00
53643;DHT22;39546;45.534;12.048;2023-04-15T05:46:01;12.40;84.90
53643;DHT22;39546;45.534;12.048;2023-04-15T05:52:03;12.30;84.90
53643;DHT22;39546;45.534;12.048;2023-04-15T05:58:05;12.20;85.10
53643;DHT22;39546;45.534;12.048;2023-04-15T06:04:07;12.20;85.30
53643;DHT22;39546;45.534;12.048;2023-04-15T06:10:10;12.20;85.40
53643;DHT22;39546;45.534;12.048;2023-04-15T06:16:12;12.30;85.30
53643;DHT22;39546;45.534;12.048;2023-04-15T06:22:15;12.40;85.30
53643;DHT22;39546;45.534;12.048;2023-04-15T06:28:17;12.30;85.40
53643;DHT22;39546;45.534;12.048;2023-04-15T06:34:19;12.40;85.30
53643;DHT22;39546;45.534;12.048;2023-04-15T06:40:21;12.30;85.30
53643;DHT22;39546;45.534;12.048;2023-04-15T06:46:23;12.30;85.60
53643;DHT22;39546;45.534;12.048;2023-04-15T06:52:26;12.30;85.80
53643;DHT22;39546;45.534;12.048;2023-04-15T06:58:28;12.40;85.90
53643;DHT22;39546;45.534;12.048;2023-04-15T07:04:30;12.40;85.80
53643;DHT22;39546;45.534;12.048;2023-04-15T07:10:33;12.70;85.60
53643;DHT22;39546;45.534;12.048;2023-04-15T07:16:35;12.70;85.50
53643;DHT22;39546;45.534;12.048;2023-04-15T07:22:37;12.70;85.40
53643;DHT22;39546;45.534;12.048;2023-04-15T07:28:39;12.90;85.70
53643;DHT22;39546;45.534;12.048;2023-04-15T07:34:42;13.10;85.60
53643;DHT22;39546;45.534;12.048;2023-04-15T07:40:45;13.20;85.50
53643;DHT22;39546;45.534;12.048;2023-04-15T07:46:47;13.40;85.50
53643;DHT22;39546;45.534;12.048;2023-04-15T07:52:49;13.50;84.90
53643;DHT22;39546;45.534;12.048;2023-04-15T07:58:53;13.60;84.90
53643;DHT22;39546;45.534;12.048;2023-04-15T08:04:55;13.60;85.10
53643;DHT22;39546;45.534;12.048;2023-04-15T08:10:58;13.70;84.90
53643;DHT22;39546;45.534;12.048;2023-04-15T08:17:00;13.70;84.70
53643;DHT22;39546;45.534;12.048;2023-04-15T08:23:03;13.70;84.40
53643;DHT22;39546;45.534;12.048;2023-04-15T08:29:05;13.90;84.10
53643;DHT22;39546;45.534;12.048;2023-04-15T08:35:08;14.10;84.10
53643;DHT22;39546;45.534;12.048;2023-04-15T08:41:21;14.20;84.10
53643;DHT22;39546;45.534;12.048;2023-04-15T08:47:29;14.20;83.80
53643;DHT22;39546;45.534;12.048;2023-04-15T08:53:34;14.30;84.30
53643;DHT22;39546;45.534;12.048;2023-04-15T08:59:37;14.50;83.90
53643;DHT22;39546;45.534;12.048;2023-04-15T09:05:39;14.60;83.10
53643;DHT22;39546;45.534;12.048;2023-04-15T09:11:42;14.70;82.70
53643;DHT22;39546;45.534;12.048;2023-04-15T09:17:44;14.60;82.60
53643;DHT22;39546;45.534;12.048;2023-04-15T09:23:58;14.70;82.80
53643;DHT22;39546;45.534;12.048;2023-04-15T09:30:01;15.00;82.50
53643;DHT22;39546;45.534;12.048;2023-04-15T09:36:04;15.00;82.70
53643;DHT22;39546;45.534;12.048;2023-04-15T09:42:07;15.10;82.40
53643;DHT22;39546;45.534;12.048;2023-04-15T09:54:22;15.20;81.80
53643;DHT22;39546;45.534;12.048;2023-04-15T10:00:24;15.40;81.60
53643;DHT22;39546;45.534;12.048;2023-04-15T10:06:27;15.30;81.50
53643;DHT22;39546;45.534;12.048;2023-04-15T10:12:30;15.40;81.50
53643;DHT22;39546;45.534;12.048;2023-04-15T10:18:37;15.50;81.70
53643;DHT22;39546;45.534;12.048;2023-04-15T10:24:39;15.70;81.90
53643;DHT22;39546;45.534;12.048;2023-04-15T10:30:42;16.00;80.60
53643;DHT22;39546;45.534;12.048;2023-04-15T10:36:44;16.00;79.90
53643;DHT22;39546;45.534;12.048;2023-04-15T10:42:48;15.80;80.20
53643;DHT22;39546;45.534;12.048;2023-04-15T10:48:53;16.10;81.30
53643;DHT22;39546;45.534;12.048;2023-04-15T10:55:14;16.50;81.00
53643;DHT22;39546;45.534;12.048;2023-04-15T11:01:19;16.90;79.60
53643;DHT22;39546;45.534;12.048;2023-04-15T11:13:50;17.60;75.10
53643;DHT22;39546;45.534;12.048;2023-04-15T11:19:53;18.00;75.10
53643;DHT22;39546;45.534;12.048;2023-04-15T11:25:57;18.10;74.70
53643;DHT22;39546;45.534;12.048;2023-04-15T11:32:09;18.00;74.40
53643;DHT22;39546;45.534;12.048;2023-04-15T11:38:12;17.80;75.80
53643;DHT22;39546;45.534;12.048;2023-04-15T11:44:16;17.90;75.30
53643;DHT22;39546;45.534;12.048;2023-04-15T11:50:22;18.10;73.70
53643;DHT22;39546;45.534;12.048;2023-04-15T11:56:25;17.90;74.80
53643;DHT22;39546;45.534;12.048;2023-04-15T12:02:31;17.80;74.40
53643;DHT22;39546;45.534;12.048;2023-04-15T12:15:00;18.40;69.70
53643;DHT22;39546;45.534;12.048;2023-04-15T12:21:09;18.40;68.90
53643;DHT22;39546;45.534;12.048;2023-04-15T12:27:14;18.40;67.80
53643;DHT22;39546;45.534;12.048;2023-04-15T12:33:17;18.70;67.50
53643;DHT22;39546;45.534;12.048;2023-04-15T12:39:27;19.10;68.90
53643;DHT22;39546;45.534;12.048;2023-04-15T12:45:29;19.30;66.80
53643;DHT22;39546;45.534;12.048;2023-04-15T12:51:31;19.30;65.50
53643;DHT22;39546;45.534;12.048;2023-04-15T12:57:33;19.30;66.00
53643;DHT22;39546;45.534;12.048;2023-04-15T13:03:35;19.40;65.20
53643;DHT22;39546;45.534;12.048;2023-04-15T13:09:37;19.20;64.80
53643;DHT22;39546;45.534;12.048;2023-04-15T13:15:40;19.30;65.50
53643;DHT22;39546;45.534;12.048;2023-04-15T13:21:42;18.80;64.70
53643;DHT22;39546;45.534;12.048;2023-04-15T13:27:45;18.60;66.70
53643;DHT22;39546;45.534;12.048;2023-04-15T13:33:47;18.90;68.30
53643;DHT22;39546;45.534;12.048;2023-04-15T13:39:49;18.50;67.80
53643;DHT22;39546;45.534;12.048;2023-04-15T13:45:51;18.20;67.90
53643;DHT22;39546;45.534;12.048;2023-04-15T13:51:53;17.90;67.90
53643;DHT22;39546;45.534;12.048;2023-04-15T13:57:55;17.90;69.00
53643;DHT22;39546;45.534;12.048;2023-04-15T14:03:58;18.20;69.90
53643;DHT22;39546;45.534;12.048;2023-04-15T14:10:00;18.60;68.90
53643;DHT22;39546;45.534;12.048;2023-04-15T14:16:02;18.80;67.30
53643;DHT22;39546;45.534;12.048;2023-04-15T14:22:04;18.70;66.30
53643;DHT22;39546;45.534;12.048;2023-04-15T14:28:06;18.30;66.80
53643;DHT22;39546;45.534;12.048;2023-04-15T14:34:08;18.30;66.40
53643;DHT22;39546;45.534;12.048;2023-04-15T14:40:10;18.40;65.40
53643;DHT22;39546;45.534;12.048;2023-04-15T14:46:12;18.20;65.20
53643;DHT22;39546;45.534;12.048;2023-04-15T14:52:15;17.90;64.50
53643;DHT22;39546;45.534;12.048;2023-04-15T14:58:17;17.90;64.00
53643;DHT22;39546;45.534;12.048;2023-04-15T15:04:19;18.00;64.00
53643;DHT22;39546;45.534;12.048;2023-04-15T15:10:21;17.70;65.70
53643;DHT22;39546;45.534;12.048;2023-04-15T15:16:24;17.30;68.00
53643;DHT22;39546;45.534;12.048;2023-04-15T15:22:26;17.20;69.10
53643;DHT22;39546;45.534;12.048;2023-04-15T15:28:28;17.00;70.50
53643;DHT22;39546;45.534;12.048;2023-04-15T15:34:30;17.00;71.50
53643;DHT22;39546;45.534;12.048;2023-04-15T15:40:32;16.90;72.90
53643;DHT22;39546;45.534;12.048;2023-04-15T15:46:34;16.90;73.00
53643;DHT22;39546;45.534;12.048;2023-04-15T15:52:36;17.10;73.00
53643;DHT22;39546;45.534;12.048;2023-04-15T15:58:38;17.10;74.00
53643;DHT22;39546;45.534;12.048;2023-04-15T16:04:41;17.20;74.20
53643;DHT22;39546;45.534;12.048;2023-04-15T16:10:43;17.30;74.20
53643;DHT22;39546;45.534;12.048;2023-04-15T16:16:46;17.40;73.80
53643;DHT22;39546;45.534;12.048;2023-04-15T16:22:49;17.30;72.50
53643;DHT22;39546;45.534;12.048;2023-04-15T16:28:51;17.10;72.70
53643;DHT22;39546;45.534;12.048;2023-04-15T16:34:53;17.30;72.50
53643;DHT22;39546;45.534;12.048;2023-04-15T16:40:58;17.30;72.30
53643;DHT22;39546;45.534;12.048;2023-04-15T16:47:00;17.10;72.30
53643;DHT22;39546;45.534;12.048;2023-04-15T16:53:03;16.90;72.90
53643;DHT22;39546;45.534;12.048;2023-04-15T16:59:05;16.80;73.50
53643;DHT22;39546;45.534;12.048;2023-04-15T17:05:07;16.80;73.80
53643;DHT22;39546;45.534;12.048;2023-04-15T17:11:09;17.90;72.30
53643;DHT22;39546;45.534;12.048;2023-04-15T17:17:12;19.10;71.80
53643;DHT22;39546;45.534;12.048;2023-04-15T17:23:14;18.80;72.30
53643;DHT22;39546;45.534;12.048;2023-04-15T17:29:16;18.20;73.70
53643;DHT22;39546;45.534;12.048;2023-04-15T17:35:18;17.70;74.70
53643;DHT22;39546;45.534;12.048;2023-04-15T17:41:21;17.70;74.90
53643;DHT22;39546;45.534;12.048;2023-04-15T17:47:23;17.80;74.30
53643;DHT22;39546;45.534;12.048;2023-04-15T17:53:25;17.40;74.70
53643;DHT22;39546;45.534;12.048;2023-04-15T17:59:28;17.10;75.30
53643;DHT22;39546;45.534;12.048;2023-04-15T18:05:30;16.80;75.60
53643;DHT22;39546;45.534;12.048;2023-04-15T18:11:32;16.60;76.00
53643;DHT22;39546;45.534;12.048;2023-04-15T18:17:35;16.30;76.30
53643;DHT22;39546;45.534;12.048;2023-04-15T18:23:37;16.20;76.90
53643;DHT22;39546;45.534;12.048;2023-04-15T18:29:39;16.10;77.30
53643;DHT22;39546;45.534;12.048;2023-04-15T18:35:41;15.90;77.40
53643;DHT22;39546;45.534;12.048;2023-04-15T18:41:43;15.70;77.70
53643;DHT22;39546;45.534;12.048;2023-04-15T18:47:45;15.50;78.10
53643;DHT22;39546;45.534;12.048;2023-04-15T18:53:47;15.50;78.30
53643;DHT22;39546;45.534;12.048;2023-04-15T18:59:49;15.50;78.20
53643;DHT22;39546;45.534;12.048;2023-04-15T19:05:51;15.40;78.20
53643;DHT22;39546;45.534;12.048;2023-04-15T19:11:53;15.40;78.10
53643;DHT22;39546;45.534;12.048;2023-04-15T19:17:57;15.40;78.10
53643;DHT22;39546;45.534;12.048;2023-04-15T19:23:59;15.20;78.40
53643;DHT22;39546;45.534;12.048;2023-04-15T19:30:01;15.20;78.60
53643;DHT22;39546;45.534;12.048;2023-04-15T19:36:06;15.10;78.90
53643;DHT22;39546;45.534;12.048;2023-04-15T19:42:08;15.10;78.70
53643;DHT22;39546;45.534;12.048;2023-04-15T19:48:10;15.00;78.60
53643;DHT22;39546;45.534;12.048;2023-04-15T19:54:12;14.70;79.00
53643;DHT22;39546;45.534;12.048;2023-04-15T20:00:14;14.70;79.60
53643;DHT22;39546;45.534;12.048;2023-04-15T20:06:16;14.70;79.40
53643;DHT22;39546;45.534;12.048;2023-04-15T20:12:18;14.70;79.50
53643;DHT22;39546;45.534;12.048;2023-04-15T20:18:20;14.70;79.50
53643;DHT22;39546;45.534;12.048;2023-04-15T20:24:22;14.70;79.50
53643;DHT22;39546;45.534;12.048;2023-04-15T20:30:25;14.60;79.70
53643;DHT22;39546;45.534;12.048;2023-04-15T20:36:27;14.60;79.60
53643;DHT22;39546;45.534;12.048;2023-04-15T20:42:32;14.50;79.90
53643;DHT22;39546;45.534;12.048;2023-04-15T20:48:37;14.40;80.00
53643;DHT22;39546;45.534;12.048;2023-04-15T20:54:40;14.30;79.90
53643;DHT22;39546;45.534;12.048;2023-04-15T21:00:42;14.20;80.10
53643;DHT22;39546;45.534;12.048;2023-04-15T21:06:46;14.10;79.90
53643;DHT22;39546;45.534;12.048;2023-04-15T21:12:48;14.00;80.40
53643;DHT22;39546;45.534;12.048;2023-04-15T21:18:50;14.10;80.60
53643;DHT22;39546;45.534;12.048;2023-04-15T21:24:53;14.00;80.60
53643;DHT22;39546;45.534;12.048;2023-04-15T21:30:56;14.10;80.80
53643;DHT22;39546;45.534;12.048;2023-04-15T21:36:58;14.10;80.80
53643;DHT22;39546;45.534;12.048;2023-04-15T21:43:01;14.10;81.00
53643;DHT22;39546;45.534;12.048;2023-04-15T21:49:03;13.90;81.10
53643;DHT22;39546;45.534;12.048;2023-04-15T21:55:07;13.80;81.30
53643;DHT22;39546;45.534;12.048;2023-04-15T22:01:09;13.70;81.30
53643;DHT22;39546;45.534;12.048;2023-04-15T22:07:12;13.70;81.30
53643;DHT22;39546;45.534;12.048;2023-04-15T22:13:15;13.70;81.30
53643;DHT22;39546;45.534;12.048;2023-04-15T22:19:44;13.60;81.40
53643;DHT22;39546;45.534;12.048;2023-04-15T22:25:46;13.70;81.20
53643;DHT22;39546;45.534;12.048;2023-04-15T22:31:49;13.50;81.30
53643;DHT22;39546;45.534;12.048;2023-04-15T22:37:51;13.50;81.30
53643;DHT22;39546;45.534;12.048;2023-04-15T22:43:54;13.50;81.10
53643;DHT22;39546;45.534;12.048;2023-04-15T22:49:56;13.50;81.10
53643;DHT22;39546;45.534;12.048;2023-04-15T22:55:59;13.50;80.90
53643;DHT22;39546;45.534;12.048;2023-04-15T23:02:01;13.60;80.70
53643;DHT22;39546;45.534;12.048;2023-04-15T23:08:03;13.60;80.30
53643;DHT22;39546;45.534;12.048;2023-04-15T23:14:05;13.50;80.50
53643;DHT22;39546;45.534;12.048;2023-04-15T23:20:34;13.50;80.80
53643;DHT22;39546;45.534;12.048;2023-04-15T23:26:36;13.50;80.60
53643;DHT22;39546;45.534;12.048;2023-04-15T23:32:38;13.40;80.80
53643;DHT22;39546;45.534;12.048;2023-04-15T23:38:41;13.30;80.80
53643;DHT22;39546;45.534;12.048;2023-04-15T23:44:47;13.30;80.50
53643;DHT22;39546;45.534;12.048;2023-04-15T23:50:49;13.30;80.10
53643;DHT22;39546;45.534;12.048;2023-04-15T23:56:51;13.30;80.20
